sensor_id;sensor_type;location;lat;lon;timestamp;temperature;humidity
5346;DHT22;2695;49.444;11.054;2023-04-06T00:02:18;3.50;66.70
5346;DHT22;2695;49.444;11.054;2023-04-06T00:04:47;3.50;66.80
5346;DHT22;2695;49.444;11.054;2023-04-06T00:07:15;3.50;67.00
5346;DHT22;2695;49.444;11.054;2023-04-06T00:09:43;3.50;67.10
5346;DHT22;2695;49.444;11.054;2023-04-06T00:12:12;3.40;67.20
5346;DHT22;2695;49.444;11.054;2023-04-06T00:14:40;3.30;68.30
5346;DHT22;2695;49.444;11.054;2023-04-06T00:17:09;3.30;67.80
5346;DHT22;2695;49.444;11.054;2023-04-06T00:19:37;3.30;68.10
5346;DHT22;2695;49.444;11.054;2023-04-06T00:22:05;3.20;68.30
5346;DHT22;2695;49.444;11.054;2023-04-06T00:24:33;3.20;68.50
5346;DHT22;2695;49.444;11.054;2023-04-06T00:27:01;3.20;68.70
5346;DHT22;2695;49.444;11.054;2023-04-06T00:29:31;3.10;68.90
5346;DHT22;2695;49.444;11.054;2023-04-06T00:31:59;3.10;69.00
5346;DHT22;2695;49.444;11.054;2023-04-06T00:34:27;3.00;68.80
5346;DHT22;2695;49.444;11.054;2023-04-06T00:36:55;3.10;69.40
5346;DHT22;2695;49.444;11.054;2023-04-06T00:39:23;3.10;69.60
5346;DHT22;2695;49.444;11.054;2023-04-06T00:41:52;3.10;69.60
5346;DHT22;2695;49.444;11.054;2023-04-06T00:44:20;3.00;69.70
5346;DHT22;2695;49.444;11.054;2023-04-06T00:46:50;3.00;70.30
5346;DHT22;2695;49.444;11.054;2023-04-06T00:49:18;3.00;70.30
5346;DHT22;2695;49.444;11.054;2023-04-06T00:51:47;3.00;70.20
5346;DHT22;2695;49.444;11.054;2023-04-06T00:54:15;3.00;70.10
5346;DHT22;2695;49.444;11.054;2023-04-06T00:56:42;3.00;70.20
5346;DHT22;2695;49.444;11.054;2023-04-06T00:59:11;3.00;70.40
5346;DHT22;2695;49.444;11.054;2023-04-06T01:01:39;3.00;70.50
5346;DHT22;2695;49.444;11.054;2023-04-06T01:04:09;2.90;70.60
5346;DHT22;2695;49.444;11.054;2023-04-06T01:06:37;2.90;70.50
5346;DHT22;2695;49.444;11.054;2023-04-06T01:09:05;2.90;70.50
5346;DHT22;2695;49.444;11.054;2023-04-06T01:11:33;2.80;70.40
5346;DHT22;2695;49.444;11.054;2023-04-06T01:14:03;2.80;70.60
5346;DHT22;2695;49.444;11.054;2023-04-06T01:16:32;2.80;70.70
5346;DHT22;2695;49.444;11.054;2023-04-06T01:19:00;2.80;71.00
5346;DHT22;2695;49.444;11.054;2023-04-06T01:21:29;2.70;71.10
5346;DHT22;2695;49.444;11.054;2023-04-06T01:23:59;2.70;71.20
5346;DHT22;2695;49.444;11.054;2023-04-06T01:26:26;2.70;71.70
5346;DHT22;2695;49.444;11.054;2023-04-06T01:28:56;2.60;71.80
5346;DHT22;2695;49.444;11.054;2023-04-06T01:35:12;2.60;72.10
5346;DHT22;2695;49.444;11.054;2023-04-06T01:37:40;2.60;72.30
5346;DHT22;2695;49.444;11.054;2023-04-06T01:40:10;2.60;72.50
5346;DHT22;2695;49.444;11.054;2023-04-06T01:42:38;2.50;72.70
5346;DHT22;2695;49.444;11.054;2023-04-06T01:45:07;2.60;72.90
5346;DHT22;2695;49.444;11.054;2023-04-06T01:47:35;2.50;73.00
5346;DHT22;2695;49.444;11.054;2023-04-06T01:50:04;2.60;73.20
5346;DHT22;2695;49.444;11.054;2023-04-06T01:52:34;2.60;73.10
5346;DHT22;2695;49.444;11.054;2023-04-06T01:55:02;2.50;73.20
5346;DHT22;2695;49.444;11.054;2023-04-06T01:57:31;2.50;73.30
5346;DHT22;2695;49.444;11.054;2023-04-06T02:00:00;2.40;73.60
5346;DHT22;2695;49.444;11.054;2023-04-06T02:02:28;2.50;73.80
5346;DHT22;2695;49.444;11.054;2023-04-06T02:04:56;2.50;73.70
5346;DHT22;2695;49.444;11.054;2023-04-06T02:07:25;2.50;73.70
5346;DHT22;2695;49.444;11.054;2023-04-06T02:09:54;2.40;73.90
5346;DHT22;2695;49.444;11.054;2023-04-06T02:12:23;2.40;74.20
5346;DHT22;2695;49.444;11.054;2023-04-06T02:14:52;2.40;74.30
5346;DHT22;2695;49.444;11.054;2023-04-06T02:17:20;2.30;74.60
5346;DHT22;2695;49.444;11.054;2023-04-06T02:19:48;2.30;75.10
5346;DHT22;2695;49.444;11.054;2023-04-06T02:22:16;2.40;75.50
5346;DHT22;2695;49.444;11.054;2023-04-06T02:24:44;2.40;75.50
5346;DHT22;2695;49.444;11.054;2023-04-06T02:27:13;2.40;75.30
5346;DHT22;2695;49.444;11.054;2023-04-06T02:29:41;2.40;75.50
5346;DHT22;2695;49.444;11.054;2023-04-06T02:32:11;2.50;75.60
5346;DHT22;2695;49.444;11.054;2023-04-06T02:34:39;2.40;75.40
5346;DHT22;2695;49.444;11.054;2023-04-06T02:37:07;2.30;75.40
5346;DHT22;2695;49.444;11.054;2023-04-06T02:39:35;2.30;75.40
5346;DHT22;2695;49.444;11.054;2023-04-06T02:42:03;2.30;75.40
5346;DHT22;2695;49.444;11.054;2023-04-06T02:44:31;2.30;75.50
5346;DHT22;2695;49.444;11.054;2023-04-06T02:46:59;2.30;75.60
5346;DHT22;2695;49.444;11.054;2023-04-06T02:49:28;2.30;75.90
5346;DHT22;2695;49.444;11.054;2023-04-06T02:51:56;2.30;76.20
5346;DHT22;2695;49.444;11.054;2023-04-06T02:54:24;2.40;76.30
5346;DHT22;2695;49.444;11.054;2023-04-06T02:56:52;2.30;76.30
5346;DHT22;2695;49.444;11.054;2023-04-06T02:59:20;2.40;76.40
5346;DHT22;2695;49.444;11.054;2023-04-06T03:01:48;2.40;76.30
5346;DHT22;2695;49.444;11.054;2023-04-06T03:04:16;2.30;76.50
5346;DHT22;2695;49.444;11.054;2023-04-06T03:06:45;2.20;76.80
5346;DHT22;2695;49.444;11.054;2023-04-06T03:09:13;2.20;77.00
5346;DHT22;2695;49.444;11.054;2023-04-06T03:11:41;2.20;76.80
5346;DHT22;2695;49.444;11.054;2023-04-06T03:14:09;2.10;76.80
5346;DHT22;2695;49.444;11.054;2023-04-06T03:16:37;2.10;77.10
5346;DHT22;2695;49.444;11.054;2023-04-06T03:19:05;2.00;77.60
5346;DHT22;2695;49.444;11.054;2023-04-06T03:21:33;2.00;78.20
5346;DHT22;2695;49.444;11.054;2023-04-06T03:24:03;2.00;78.30
5346;DHT22;2695;49.444;11.054;2023-04-06T03:26:31;1.90;78.40
5346;DHT22;2695;49.444;11.054;2023-04-06T03:28:59;1.90;78.40
5346;DHT22;2695;49.444;11.054;2023-04-06T03:31:27;1.80;78.70
5346;DHT22;2695;49.444;11.054;2023-04-06T03:33:55;1.80;78.90
5346;DHT22;2695;49.444;11.054;2023-04-06T03:36:23;1.80;79.40
5346;DHT22;2695;49.444;11.054;2023-04-06T03:38:52;1.80;79.80
5346;DHT22;2695;49.444;11.054;2023-04-06T03:41:21;1.80;80.10
5346;DHT22;2695;49.444;11.054;2023-04-06T03:43:49;1.80;80.20
5346;DHT22;2695;49.444;11.054;2023-04-06T03:46:17;1.90;80.40
5346;DHT22;2695;49.444;11.054;2023-04-06T03:48:47;1.90;80.40
5346;DHT22;2695;49.444;11.054;2023-04-06T03:51:15;1.90;80.50
5346;DHT22;2695;49.444;11.054;2023-04-06T03:53:43;1.80;80.40
5346;DHT22;2695;49.444;11.054;2023-04-06T03:56:11;1.80;80.70
5346;DHT22;2695;49.444;11.054;2023-04-06T03:58:40;1.80;80.60
5346;DHT22;2695;49.444;11.054;2023-04-06T04:01:08;1.80;81.00
5346;DHT22;2695;49.444;11.054;2023-04-06T04:03:36;1.70;81.60
5346;DHT22;2695;49.444;11.054;2023-04-06T04:06:05;1.70;82.10
5346;DHT22;2695;49.444;11.054;2023-04-06T04:08:33;1.60;82.60
5346;DHT22;2695;49.444;11.054;2023-04-06T04:11:02;1.70;83.10
5346;DHT22;2695;49.444;11.054;2023-04-06T04:13:30;1.70;83.10
5346;DHT22;2695;49.444;11.054;2023-04-06T04:15:59;1.80;82.60
5346;DHT22;2695;49.444;11.054;2023-04-06T04:18:27;1.80;82.50
5346;DHT22;2695;49.444;11.054;2023-04-06T04:20:55;1.80;83.00
5346;DHT22;2695;49.444;11.054;2023-04-06T04:23:23;1.70;82.40
5346;DHT22;2695;49.444;11.054;2023-04-06T04:25:51;1.70;82.70
5346;DHT22;2695;49.444;11.054;2023-04-06T04:28:19;1.70;82.80
5346;DHT22;2695;49.444;11.054;2023-04-06T04:30:47;1.70;82.90
5346;DHT22;2695;49.444;11.054;2023-04-06T04:33:16;1.70;83.10
5346;DHT22;2695;49.444;11.054;2023-04-06T04:35:44;1.80;82.90
5346;DHT22;2695;49.444;11.054;2023-04-06T04:38:12;1.70;82.50
5346;DHT22;2695;49.444;11.054;2023-04-06T04:40:40;1.80;82.70
5346;DHT22;2695;49.444;11.054;2023-04-06T04:43:08;1.70;82.60
5346;DHT22;2695;49.444;11.054;2023-04-06T04:45:36;1.70;82.50
5346;DHT22;2695;49.444;11.054;2023-04-06T04:48:04;1.70;82.50
5346;DHT22;2695;49.444;11.054;2023-04-06T04:50:34;1.70;82.90
5346;DHT22;2695;49.444;11.054;2023-04-06T04:53:02;1.70;82.90
5346;DHT22;2695;49.444;11.054;2023-04-06T04:55:32;1.80;83.00
5346;DHT22;2695;49.444;11.054;2023-04-06T04:58:00;1.80;83.20
5346;DHT22;2695;49.444;11.054;2023-04-06T05:00:29;1.90;83.40
5346;DHT22;2695;49.444;11.054;2023-04-06T05:02:57;2.20;83.40
5346;DHT22;2695;49.444;11.054;2023-04-06T05:05:25;2.70;82.40
5346;DHT22;2695;49.444;11.054;2023-04-06T05:07:54;3.30;81.10
5346;DHT22;2695;49.444;11.054;2023-04-06T05:10:22;4.00;79.50
5346;DHT22;2695;49.444;11.054;2023-04-06T05:12:50;4.80;76.90
5346;DHT22;2695;49.444;11.054;2023-04-06T05:15:18;5.50;75.10
5346;DHT22;2695;49.444;11.054;2023-04-06T05:17:46;6.20;72.50
5346;DHT22;2695;49.444;11.054;2023-04-06T05:20:15;6.90;70.20
5346;DHT22;2695;49.444;11.054;2023-04-06T05:22:43;7.60;67.90
5346;DHT22;2695;49.444;11.054;2023-04-06T05:25:12;8.20;65.80
5346;DHT22;2695;49.444;11.054;2023-04-06T05:27:41;8.80;63.40
5346;DHT22;2695;49.444;11.054;2023-04-06T05:30:09;9.30;61.80
5346;DHT22;2695;49.444;11.054;2023-04-06T05:32:37;9.90;59.70
5346;DHT22;2695;49.444;11.054;2023-04-06T05:35:05;10.30;57.20
5346;DHT22;2695;49.444;11.054;2023-04-06T05:37:33;11.40;53.80
5346;DHT22;2695;49.444;11.054;2023-04-06T05:40:01;11.50;54.20
5346;DHT22;2695;49.444;11.054;2023-04-06T05:42:37;11.90;52.20
5346;DHT22;2695;49.444;11.054;2023-04-06T05:45:06;12.30;51.40
5346;DHT22;2695;49.444;11.054;2023-04-06T05:47:34;12.80;50.10
5346;DHT22;2695;49.444;11.054;2023-04-06T05:50:03;13.20;48.60
5346;DHT22;2695;49.444;11.054;2023-04-06T05:52:32;13.50;47.70
5346;DHT22;2695;49.444;11.054;2023-04-06T05:55:00;13.90;46.80
5346;DHT22;2695;49.444;11.054;2023-04-06T05:57:28;14.30;45.50
5346;DHT22;2695;49.444;11.054;2023-04-06T05:59:57;14.60;45.10
5346;DHT22;2695;49.444;11.054;2023-04-06T06:02:26;15.00;44.30
5346;DHT22;2695;49.444;11.054;2023-04-06T06:04:54;15.30;43.40
5346;DHT22;2695;49.444;11.054;2023-04-06T06:07:23;15.80;42.60
5346;DHT22;2695;49.444;11.054;2023-04-06T06:09:51;16.20;41.40
5346;DHT22;2695;49.444;11.054;2023-04-06T06:12:19;16.30;41.10
5346;DHT22;2695;49.444;11.054;2023-04-06T06:14:47;16.70;40.60
5346;DHT22;2695;49.444;11.054;2023-04-06T06:17:16;16.90;39.80
5346;DHT22;2695;49.444;11.054;2023-04-06T06:19:45;17.30;39.10
5346;DHT22;2695;49.444;11.054;2023-04-06T06:22:13;17.80;38.70
5346;DHT22;2695;49.444;11.054;2023-04-06T06:24:41;18.20;38.40
5346;DHT22;2695;49.444;11.054;2023-04-06T06:27:09;18.40;37.10
5346;DHT22;2695;49.444;11.054;2023-04-06T06:29:37;18.70;36.60
5346;DHT22;2695;49.444;11.054;2023-04-06T06:32:05;19.20;35.90
5346;DHT22;2695;49.444;11.054;2023-04-06T06:34:37;19.50;34.70
5346;DHT22;2695;49.444;11.054;2023-04-06T06:37:05;19.70;34.30
5346;DHT22;2695;49.444;11.054;2023-04-06T06:39:33;19.90;34.10
5346;DHT22;2695;49.444;11.054;2023-04-06T06:42:01;20.10;33.90
5346;DHT22;2695;49.444;11.054;2023-04-06T06:44:30;20.60;33.10
5346;DHT22;2695;49.444;11.054;2023-04-06T06:46:58;20.80;32.10
5346;DHT22;2695;49.444;11.054;2023-04-06T06:49:26;21.00;32.30
5346;DHT22;2695;49.444;11.054;2023-04-06T06:51:55;21.40;31.70
5346;DHT22;2695;49.444;11.054;2023-04-06T06:54:23;21.90;30.80
5346;DHT22;2695;49.444;11.054;2023-04-06T06:56:54;22.10;30.30
5346;DHT22;2695;49.444;11.054;2023-04-06T06:59:22;22.20;30.00
5346;DHT22;2695;49.444;11.054;2023-04-06T07:01:50;22.50;29.70
5346;DHT22;2695;49.444;11.054;2023-04-06T07:04:18;22.60;28.50
5346;DHT22;2695;49.444;11.054;2023-04-06T07:06:46;22.50;28.80
5346;DHT22;2695;49.444;11.054;2023-04-06T07:09:16;22.30;28.80
5346;DHT22;2695;49.444;11.054;2023-04-06T07:11:44;22.20;28.30
5346;DHT22;2695;49.444;11.054;2023-04-06T07:14:12;22.00;28.60
5346;DHT22;2695;49.444;11.054;2023-04-06T07:16:40;21.80;28.80
5346;DHT22;2695;49.444;11.054;2023-04-06T07:19:08;22.20;28.50
5346;DHT22;2695;49.444;11.054;2023-04-06T07:21:37;22.30;28.10
5346;DHT22;2695;49.444;11.054;2023-04-06T07:24:05;22.50;28.40
5346;DHT22;2695;49.444;11.054;2023-04-06T07:26:35;22.80;28.50
5346;DHT22;2695;49.444;11.054;2023-04-06T07:29:03;22.80;27.60
5346;DHT22;2695;49.444;11.054;2023-04-06T07:31:31;22.40;28.40
5346;DHT22;2695;49.444;11.054;2023-04-06T07:33:59;22.60;28.00
5346;DHT22;2695;49.444;11.054;2023-04-06T07:36:27;23.00;27.50
5346;DHT22;2695;49.444;11.054;2023-04-06T07:38:55;23.30;27.30
5346;DHT22;2695;49.444;11.054;2023-04-06T07:41:23;23.60;27.70
5346;DHT22;2695;49.444;11.054;2023-04-06T07:43:52;23.70;27.00
5346;DHT22;2695;49.444;11.054;2023-04-06T07:46:20;23.80;26.70
5346;DHT22;2695;49.444;11.054;2023-04-06T07:48:48;23.90;27.00
5346;DHT22;2695;49.444;11.054;2023-04-06T07:51:17;24.50;26.60
5346;DHT22;2695;49.444;11.054;2023-04-06T07:53:45;24.80;26.20
5346;DHT22;2695;49.444;11.054;2023-04-06T07:56:13;25.10;26.00
5346;DHT22;2695;49.444;11.054;2023-04-06T07:58:42;25.10;25.60
5346;DHT22;2695;49.444;11.054;2023-04-06T08:01:11;24.90;25.90
5346;DHT22;2695;49.444;11.054;2023-04-06T08:03:39;24.80;25.70
5346;DHT22;2695;49.444;11.054;2023-04-06T08:06:08;24.80;25.80
5346;DHT22;2695;49.444;11.054;2023-04-06T08:08:36;24.80;25.90
5346;DHT22;2695;49.444;11.054;2023-04-06T08:11:04;25.00;25.90
5346;DHT22;2695;49.444;11.054;2023-04-06T08:13:33;25.10;25.70
5346;DHT22;2695;49.444;11.054;2023-04-06T08:16:01;25.30;25.50
5346;DHT22;2695;49.444;11.054;2023-04-06T08:18:30;25.30;25.30
5346;DHT22;2695;49.444;11.054;2023-04-06T08:20:58;25.40;25.40
5346;DHT22;2695;49.444;11.054;2023-04-06T08:23:26;25.60;25.10
5346;DHT22;2695;49.444;11.054;2023-04-06T08:25:54;25.50;25.10
5346;DHT22;2695;49.444;11.054;2023-04-06T08:28:22;25.60;25.10
5346;DHT22;2695;49.444;11.054;2023-04-06T08:30:50;25.80;24.70
5346;DHT22;2695;49.444;11.054;2023-04-06T08:33:18;25.90;24.90
5346;DHT22;2695;49.444;11.054;2023-04-06T08:35:47;26.20;24.70
5346;DHT22;2695;49.444;11.054;2023-04-06T08:38:15;26.10;24.50
5346;DHT22;2695;49.444;11.054;2023-04-06T08:40:43;25.90;24.30
5346;DHT22;2695;49.444;11.054;2023-04-06T08:43:14;25.50;24.70
5346;DHT22;2695;49.444;11.054;2023-04-06T08:45:44;26.00;25.40
5346;DHT22;2695;49.444;11.054;2023-04-06T08:48:13;26.50;24.20
5346;DHT22;2695;49.444;11.054;2023-04-06T08:50:42;26.40;23.60
5346;DHT22;2695;49.444;11.054;2023-04-06T08:53:12;26.20;23.80
5346;DHT22;2695;49.444;11.054;2023-04-06T08:55:41;26.20;24.00
5346;DHT22;2695;49.444;11.054;2023-04-06T08:58:10;26.30;23.70
5346;DHT22;2695;49.444;11.054;2023-04-06T09:00:41;26.20;23.80
5346;DHT22;2695;49.444;11.054;2023-04-06T09:03:12;26.30;23.80
5346;DHT22;2695;49.444;11.054;2023-04-06T09:05:41;26.40;24.50
5346;DHT22;2695;49.444;11.054;2023-04-06T09:08:09;26.40;23.70
5346;DHT22;2695;49.444;11.054;2023-04-06T09:10:40;26.50;23.50
5346;DHT22;2695;49.444;11.054;2023-04-06T09:13:09;26.80;23.30
5346;DHT22;2695;49.444;11.054;2023-04-06T09:15:37;27.00;23.10
5346;DHT22;2695;49.444;11.054;2023-04-06T09:18:05;27.10;23.30
5346;DHT22;2695;49.444;11.054;2023-04-06T09:20:34;27.30;23.30
5346;DHT22;2695;49.444;11.054;2023-04-06T09:23:02;27.90;22.60
5346;DHT22;2695;49.444;11.054;2023-04-06T09:25:30;28.20;22.20
5346;DHT22;2695;49.444;11.054;2023-04-06T09:28:02;27.90;22.00
5346;DHT22;2695;49.444;11.054;2023-04-06T09:30:30;27.40;22.10
5346;DHT22;2695;49.444;11.054;2023-04-06T09:32:58;27.10;22.00
5346;DHT22;2695;49.444;11.054;2023-04-06T09:35:27;27.10;22.00
5346;DHT22;2695;49.444;11.054;2023-04-06T09:37:57;27.00;22.00
5346;DHT22;2695;49.444;11.054;2023-04-06T09:40:25;27.10;22.20
5346;DHT22;2695;49.444;11.054;2023-04-06T09:42:53;27.50;22.10
5346;DHT22;2695;49.444;11.054;2023-04-06T09:45:26;27.60;21.60
5346;DHT22;2695;49.444;11.054;2023-04-06T09:47:55;27.60;21.40
5346;DHT22;2695;49.444;11.054;2023-04-06T09:50:24;27.10;21.50
5346;DHT22;2695;49.444;11.054;2023-04-06T09:52:54;27.30;21.80
5346;DHT22;2695;49.444;11.054;2023-04-06T09:55:30;27.80;21.40
5346;DHT22;2695;49.444;11.054;2023-04-06T09:58:04;28.00;21.00
5346;DHT22;2695;49.444;11.054;2023-04-06T10:00:41;27.50;21.60
5346;DHT22;2695;49.444;11.054;2023-04-06T10:03:17;27.50;21.40
5346;DHT22;2695;49.444;11.054;2023-04-06T10:05:52;27.50;21.60
5346;DHT22;2695;49.444;11.054;2023-04-06T10:08:24;27.70;21.50
5346;DHT22;2695;49.444;11.054;2023-04-06T10:10:58;27.80;21.30
5346;DHT22;2695;49.444;11.054;2023-04-06T10:13:28;27.90;21.50
5346;DHT22;2695;49.444;11.054;2023-04-06T10:15:59;27.90;21.30
5346;DHT22;2695;49.444;11.054;2023-04-06T10:18:28;27.30;21.60
5346;DHT22;2695;49.444;11.054;2023-04-06T10:21:01;27.00;21.80
5346;DHT22;2695;49.444;11.054;2023-04-06T10:23:32;27.00;21.60
5346;DHT22;2695;49.444;11.054;2023-04-06T10:26:01;26.00;22.20
5346;DHT22;2695;49.444;11.054;2023-04-06T10:28:31;25.50;22.30
5346;DHT22;2695;49.444;11.054;2023-04-06T10:31:04;25.30;22.50
5346;DHT22;2695;49.444;11.054;2023-04-06T10:33:32;25.20;22.90
5346;DHT22;2695;49.444;11.054;2023-04-06T10:36:10;25.10;22.80
5346;DHT22;2695;49.444;11.054;2023-04-06T10:38:39;25.30;22.70
5346;DHT22;2695;49.444;11.054;2023-04-06T10:41:09;25.50;22.80
5346;DHT22;2695;49.444;11.054;2023-04-06T10:43:38;25.80;22.30
5346;DHT22;2695;49.444;11.054;2023-04-06T10:46:09;26.00;22.40
5346;DHT22;2695;49.444;11.054;2023-04-06T10:48:38;25.50;22.20
5346;DHT22;2695;49.444;11.054;2023-04-06T10:51:08;25.10;22.60
5346;DHT22;2695;49.444;11.054;2023-04-06T10:53:37;25.00;22.70
5346;DHT22;2695;49.444;11.054;2023-04-06T10:56:09;25.10;22.80
5346;DHT22;2695;49.444;11.054;2023-04-06T10:58:38;24.80;22.70
5346;DHT22;2695;49.444;11.054;2023-04-06T11:01:11;24.60;22.70
5346;DHT22;2695;49.444;11.054;2023-04-06T11:03:46;24.50;22.80
5346;DHT22;2695;49.444;11.054;2023-04-06T11:06:21;24.60;23.10
5346;DHT22;2695;49.444;11.054;2023-04-06T11:08:50;24.40;23.20
5346;DHT22;2695;49.444;11.054;2023-04-06T11:11:21;24.20;22.90
5346;DHT22;2695;49.444;11.054;2023-04-06T11:13:54;23.60;22.80
5346;DHT22;2695;49.444;11.054;2023-04-06T11:16:26;22.80;23.60
5346;DHT22;2695;49.444;11.054;2023-04-06T11:18:55;22.60;23.80
5346;DHT22;2695;49.444;11.054;2023-04-06T11:21:34;22.50;23.90
5346;DHT22;2695;49.444;11.054;2023-04-06T11:24:05;22.70;23.80
5346;DHT22;2695;49.444;11.054;2023-04-06T11:26:43;22.90;23.60
5346;DHT22;2695;49.444;11.054;2023-04-06T11:29:13;22.90;23.40
5346;DHT22;2695;49.444;11.054;2023-04-06T11:31:45;22.80;23.00
5346;DHT22;2695;49.444;11.054;2023-04-06T11:34:17;22.50;23.00
5346;DHT22;2695;49.444;11.054;2023-04-06T11:36:54;22.60;23.30
5346;DHT22;2695;49.444;11.054;2023-04-06T11:39:24;22.50;23.20
5346;DHT22;2695;49.444;11.054;2023-04-06T11:41:55;22.50;23.40
5346;DHT22;2695;49.444;11.054;2023-04-06T11:44:30;22.60;23.90
5346;DHT22;2695;49.444;11.054;2023-04-06T11:47:01;22.30;23.40
5346;DHT22;2695;49.444;11.054;2023-04-06T11:49:29;21.70;24.00
5346;DHT22;2695;49.444;11.054;2023-04-06T11:51:58;21.40;24.40
5346;DHT22;2695;49.444;11.054;2023-04-06T11:54:31;21.40;24.50
5346;DHT22;2695;49.444;11.054;2023-04-06T11:56:59;21.00;24.10
5346;DHT22;2695;49.444;11.054;2023-04-06T11:59:30;20.70;24.50
5346;DHT22;2695;49.444;11.054;2023-04-06T12:02:04;20.20;24.90
5346;DHT22;2695;49.444;11.054;2023-04-06T12:04:33;19.70;25.30
5346;DHT22;2695;49.444;11.054;2023-04-06T12:07:01;19.40;26.10
5346;DHT22;2695;49.444;11.054;2023-04-06T12:09:30;19.30;26.70
5346;DHT22;2695;49.444;11.054;2023-04-06T12:11:58;19.20;26.50
5346;DHT22;2695;49.444;11.054;2023-04-06T12:14:27;18.80;26.20
5346;DHT22;2695;49.444;11.054;2023-04-06T12:16:55;18.50;27.00
5346;DHT22;2695;49.444;11.054;2023-04-06T12:19:24;18.20;26.80
5346;DHT22;2695;49.444;11.054;2023-04-06T12:21:52;18.00;27.40
5346;DHT22;2695;49.444;11.054;2023-04-06T12:24:21;17.90;27.90
5346;DHT22;2695;49.444;11.054;2023-04-06T12:26:49;17.60;27.30
5346;DHT22;2695;49.444;11.054;2023-04-06T12:29:32;17.50;28.10
5346;DHT22;2695;49.444;11.054;2023-04-06T12:32:00;17.30;28.20
5346;DHT22;2695;49.444;11.054;2023-04-06T12:34:30;17.30;28.00
5346;DHT22;2695;49.444;11.054;2023-04-06T12:36:58;17.30;28.00
5346;DHT22;2695;49.444;11.054;2023-04-06T12:39:27;17.30;28.30
5346;DHT22;2695;49.444;11.054;2023-04-06T12:41:55;17.10;28.40
5346;DHT22;2695;49.444;11.054;2023-04-06T12:44:32;17.00;28.10
5346;DHT22;2695;49.444;11.054;2023-04-06T12:47:01;16.80;28.40
5346;DHT22;2695;49.444;11.054;2023-04-06T12:49:33;16.50;28.40
5346;DHT22;2695;49.444;11.054;2023-04-06T12:52:02;16.40;29.10
5346;DHT22;2695;49.444;11.054;2023-04-06T12:54:30;16.50;29.30
5346;DHT22;2695;49.444;11.054;2023-04-06T12:56:58;16.50;29.80
5346;DHT22;2695;49.444;11.054;2023-04-06T12:59:27;16.50;29.90
5346;DHT22;2695;49.444;11.054;2023-04-06T13:02:01;16.60;29.70
5346;DHT22;2695;49.444;11.054;2023-04-06T13:04:29;16.60;28.80
5346;DHT22;2695;49.444;11.054;2023-04-06T13:06:58;16.60;29.20
5346;DHT22;2695;49.444;11.054;2023-04-06T13:09:26;16.50;29.90
5346;DHT22;2695;49.444;11.054;2023-04-06T13:11:54;16.50;30.30
5346;DHT22;2695;49.444;11.054;2023-04-06T13:14:23;16.60;30.40
5346;DHT22;2695;49.444;11.054;2023-04-06T13:16:51;16.70;29.80
5346;DHT22;2695;49.444;11.054;2023-04-06T13:19:19;16.60;30.40
5346;DHT22;2695;49.444;11.054;2023-04-06T13:21:48;16.50;29.60
5346;DHT22;2695;49.444;11.054;2023-04-06T13:24:17;16.30;29.20
5346;DHT22;2695;49.444;11.054;2023-04-06T13:26:46;16.10;29.50
5346;DHT22;2695;49.444;11.054;2023-04-06T13:29:14;15.90;29.50
5346;DHT22;2695;49.444;11.054;2023-04-06T13:31:42;15.70;29.70
5346;DHT22;2695;49.444;11.054;2023-04-06T13:34:10;15.60;30.00
5346;DHT22;2695;49.444;11.054;2023-04-06T13:36:38;15.40;30.10
5346;DHT22;2695;49.444;11.054;2023-04-06T13:39:08;15.20;30.30
5346;DHT22;2695;49.444;11.054;2023-04-06T13:41:37;15.20;30.90
5346;DHT22;2695;49.444;11.054;2023-04-06T13:44:07;15.20;30.40
5346;DHT22;2695;49.444;11.054;2023-04-06T13:46:35;15.20;30.40
5346;DHT22;2695;49.444;11.054;2023-04-06T13:49:03;15.30;30.30
5346;DHT22;2695;49.444;11.054;2023-04-06T13:51:32;15.50;30.20
5346;DHT22;2695;49.444;11.054;2023-04-06T13:53:59;15.60;30.60
5346;DHT22;2695;49.444;11.054;2023-04-06T13:56:27;15.80;30.00
5346;DHT22;2695;49.444;11.054;2023-04-06T13:58:57;15.90;29.90
5346;DHT22;2695;49.444;11.054;2023-04-06T14:01:25;16.10;29.80
5346;DHT22;2695;49.444;11.054;2023-04-06T14:03:53;16.20;29.50
5346;DHT22;2695;49.444;11.054;2023-04-06T14:06:21;16.20;29.70
5346;DHT22;2695;49.444;11.054;2023-04-06T14:08:52;16.20;30.00
5346;DHT22;2695;49.444;11.054;2023-04-06T14:11:23;16.10;30.10
5346;DHT22;2695;49.444;11.054;2023-04-06T14:13:51;16.00;30.90
5346;DHT22;2695;49.444;11.054;2023-04-06T14:16:23;16.00;30.10
5346;DHT22;2695;49.444;11.054;2023-04-06T14:18:52;15.90;30.20
5346;DHT22;2695;49.444;11.054;2023-04-06T14:21:20;15.90;31.40
5346;DHT22;2695;49.444;11.054;2023-04-06T14:23:48;15.80;30.50
5346;DHT22;2695;49.444;11.054;2023-04-06T14:26:16;15.80;30.40
5346;DHT22;2695;49.444;11.054;2023-04-06T14:28:45;15.70;30.10
5346;DHT22;2695;49.444;11.054;2023-04-06T14:31:13;15.50;30.00
5346;DHT22;2695;49.444;11.054;2023-04-06T14:33:44;15.60;30.70
5346;DHT22;2695;49.444;11.054;2023-04-06T14:36:13;15.60;31.00
5346;DHT22;2695;49.444;11.054;2023-04-06T14:38:41;15.60;30.70
5346;DHT22;2695;49.444;11.054;2023-04-06T14:41:15;15.50;30.80
5346;DHT22;2695;49.444;11.054;2023-04-06T14:43:43;15.40;30.00
5346;DHT22;2695;49.444;11.054;2023-04-06T14:46:12;15.20;30.20
5346;DHT22;2695;49.444;11.054;2023-04-06T14:48:40;15.20;30.10
5346;DHT22;2695;49.444;11.054;2023-04-06T14:51:09;15.00;30.10
5346;DHT22;2695;49.444;11.054;2023-04-06T14:53:37;14.80;30.40
5346;DHT22;2695;49.444;11.054;2023-04-06T14:56:06;14.80;31.70
5346;DHT22;2695;49.444;11.054;2023-04-06T14:58:34;15.00;31.90
5346;DHT22;2695;49.444;11.054;2023-04-06T15:01:02;15.10;30.90
5346;DHT22;2695;49.444;11.054;2023-04-06T15:03:30;15.00;30.60
5346;DHT22;2695;49.444;11.054;2023-04-06T15:05:58;15.00;30.80
5346;DHT22;2695;49.444;11.054;2023-04-06T15:08:28;15.10;31.10
5346;DHT22;2695;49.444;11.054;2023-04-06T15:10:58;15.10;30.30
5346;DHT22;2695;49.444;11.054;2023-04-06T15:13:26;15.20;31.10
5346;DHT22;2695;49.444;11.054;2023-04-06T15:15:55;15.20;30.20
5346;DHT22;2695;49.444;11.054;2023-04-06T15:18:26;15.30;30.60
5346;DHT22;2695;49.444;11.054;2023-04-06T15:20:57;15.30;29.90
5346;DHT22;2695;49.444;11.054;2023-04-06T15:23:30;15.20;29.10
5346;DHT22;2695;49.444;11.054;2023-04-06T15:25:58;15.10;29.30
5346;DHT22;2695;49.444;11.054;2023-04-06T15:28:27;15.00;29.70
5346;DHT22;2695;49.444;11.054;2023-04-06T15:30:57;15.00;29.10
5346;DHT22;2695;49.444;11.054;2023-04-06T15:33:25;15.00;29.50
5346;DHT22;2695;49.444;11.054;2023-04-06T15:35:53;15.10;30.90
5346;DHT22;2695;49.444;11.054;2023-04-06T15:38:21;14.90;30.70
5346;DHT22;2695;49.444;11.054;2023-04-06T15:40:50;15.00;30.00
5346;DHT22;2695;49.444;11.054;2023-04-06T15:43:19;15.00;29.40
5346;DHT22;2695;49.444;11.054;2023-04-06T15:45:47;14.90;30.50
5346;DHT22;2695;49.444;11.054;2023-04-06T15:48:15;14.90;29.60
5346;DHT22;2695;49.444;11.054;2023-04-06T15:50:43;14.90;29.40
5346;DHT22;2695;49.444;11.054;2023-04-06T15:53:11;14.80;29.40
5346;DHT22;2695;49.444;11.054;2023-04-06T15:55:39;14.70;30.90
5346;DHT22;2695;49.444;11.054;2023-04-06T15:58:08;14.70;31.40
5346;DHT22;2695;49.444;11.054;2023-04-06T16:00:36;14.70;30.40
5346;DHT22;2695;49.444;11.054;2023-04-06T16:03:04;14.70;31.50
5346;DHT22;2695;49.444;11.054;2023-04-06T16:05:33;14.70;32.30
5346;DHT22;2695;49.444;11.054;2023-04-06T16:08:19;14.60;32.20